METAR Data
IDs: Format: Raw Decoded Include TAF

Data at: 2311 UTC 25 Oct 2021

KTYR 252253Z 06006KT 10SM CLR 31/17 A2991 RMK AO2 SLP119 T03060167
KTYR 252153Z 06006KT 10SM CLR 32/17 A2991 RMK AO2 SLP120 T03220172
KTYR 251953Z 01004KT 10SM CLR 32/18 A2993 RMK AO2 SLP126 T03170183
KTYR 251853Z 00000KT 10SM CLR 31/19 A2994 RMK AO2 SLP131 T03060194
KTYR 251753Z 30003KT 10SM CLR 29/19 A2996 RMK AO2 SLP138 T02890189 10294 20194 58009
KTYR 251653Z 00000KT 10SM CLR 28/18 A2998 RMK AO2 SLP144 T02780178
KTYR 251553Z 10003KT 10SM CLR 26/18 A2999 RMK AO2 SLP146 T02610178
KTYR 251453Z 06004KT 10SM CLR 24/17 A2999 RMK AO2 SLP148 T02390172 52014
KTYR 251353Z 08004KT 10SM CLR 21/17 A2998 RMK AO2 SLP144 T02110172
KTYR 251253Z 00000KT 10SM CLR 19/17 A2996 RMK AO2 SLP138 T01940172
KTYR 251153Z 02003KT 10SM CLR 20/17 A2995 RMK AO2 SLP134 T02000172 10244 20200 53009
KTYR 251053Z AUTO 35004KT 10SM BKN038 21/19 A2994 RMK AO2 SLP130 T02110189 $
KTYR 251009Z AUTO 34005KT 10SM SCT011 BKN039 22/20 A2993 RMK AO2 T02170200 $
KTYR 250953Z AUTO 31004KT 10SM FEW007 BKN011 22/21 A2992 RMK AO2 SLP124 T02220206 $
KTYR 250950Z AUTO 31004KT 10SM FEW007 BKN011 BKN040 22/21 A2992 RMK AO2 $
KTYR 250943Z AUTO 29003KT 10SM BKN009 BKN040 22/21 A2992 RMK AO2 CIG 005V013 T02220206 $
KTYR 250931Z AUTO 31006KT 10SM SCT007 BKN040 22/21 A2991 RMK AO2 T02220206 $
KTYR 250853Z AUTO 24006KT 10SM BKN041 23/21 A2990 RMK AO2 SLP119 T02280206 $
KTYR 250753Z AUTO 27004KT 10SM BKN048 22/21 A2990 RMK AO2 SLP119 T02220206 $
KTYR 250653Z AUTO 00000KT 10SM SCT055 SCT075 23/21 A2990 RMK AO2 SLP117 T02280206 $
KTYR 250553Z AUTO 28006KT 10SM BKN055 BKN070 OVC085 24/21 A2990 RMK AO2 SLP118 T02440211 10261 20233 403110189 53021 $
KTYR 250453Z AUTO 19008KT 10SM CLR 23/21 A2988 RMK AO2 SLP109 T02330206 $
KTYR 250353Z AUTO 19007KT 10SM CLR 23/20 A2986 RMK AO2 SLP106 T02330200 $
KTYR 250253Z AUTO 18008KT 10SM CLR 24/19 A2984 RMK AO2 SLP097 T02390194 51010 $
KTYR 250153Z 18005KT 10SM CLR 24/19 A2983 RMK AO2 SLP095 T02440194 $
KTYR 250053Z 20003KT 10SM FEW060 26/19 A2982 RMK AO2 SLP092 T02560194 $
KTYR 242253Z 20007KT 10SM CLR 29/19 A2979 RMK AO2 SLP081 T02890194 $
KTYR 242153Z 23009KT 10SM SCT046 30/19 A2980 RMK AO2 SLP083 T03000194 $
KTYR 242053Z 19014KT 10SM SCT045 SCT055 31/19 A2979 RMK AO2 SLP079 T03060189 56026 $
KTYR 241953Z 20010G20KT 10SM FEW041 31/19 A2979 RMK AO2 SLP081 T03060189 $
KTYR 241753Z 19012KT 10SM FEW028 FEW041 SCT050 28/20 A2987 RMK AO2 SLP106 T02830200 10289 20194 58012 $
KTYR 241653Z 18015G20KT 10SM FEW025 SCT049 27/20 A2988 RMK AO2 SLP111 T02670200 $
KTYR 241553Z 19010G18KT 10SM FEW027 OVC046 25/19 A2989 RMK AO2 SLP116 T02500189 $
KTYR 241545Z 20011KT 10SM SCT027 OVC046 25/19 A2990 RMK AO2 T02500189 $
KTYR 241453Z 18012KT 10SM BKN026 OVC040 23/19 A2990 RMK AO2 SLP119 T02330189 53014 $
KTYR 241441Z 20009KT 10SM BKN026 OVC039 23/19 A2991 RMK AO2 T02330189 $
KTYR 241353Z 19010KT 10SM OVC034 23/19 A2989 RMK AO2 SLP115 T02280189 $
KTYR 241253Z 17008KT 10SM CLR 19/17 A2987 RMK AO2 SLP107 T01940172 $
KTYR 241153Z 17007KT 10SM CLR 19/17 A2986 RMK AO2 SLP106 T01940172 10228 20189 53001 $